Terminal Aerodrome Forecast
Issued by NWS St Louis, MO

Home | Current Version | Previous Version | Text Only | Print | Product List | Glossary On
Versions: 1 2 3 4 5 6 7 8 9 10 11 12 13 14
000
FTUS43 KLSX 260520
TAFCOU
TAF
KCOU 260520Z 2606/2706 17007KT P6SM VCTS OVC040CB
      TEMPO 2606/2608 5SM -TSRA OVC030CB
     FM261000 19007KT P6SM OVC035
     FM261400 21007KT P6SM OVC025
     FM261800 29009KT 5SM -SHRA VCTS OVC010CB
     FM262300 32010KT P6SM OVC020=

USA.gov is the U.S. government's official web portal to all federal, state and local government web resources and services.